createdAt,value
2018-02-21T00:00:36.080Z,100731.03
2018-02-21T00:03:06.859Z,100733.34
2018-02-21T00:05:37.778Z,100726.02
2018-02-21T00:08:08.641Z,100722.20
2018-02-21T00:10:39.979Z,100730.92
2018-02-21T00:13:10.796Z,100728.41
2018-02-21T00:15:41.699Z,100727.64
2018-02-21T00:18:12.219Z,100738.52
2018-02-21T00:20:42.900Z,100731.67
2018-02-21T00:23:13.725Z,100726.13
2018-02-21T00:25:44.311Z,100737.36
2018-02-21T00:28:14.922Z,100733.59
2018-02-21T00:30:45.876Z,100733.63
2018-02-21T00:33:16.755Z,100740.23
2018-02-21T00:35:47.655Z,100728.66
2018-02-21T00:38:18.932Z,100730.00
2018-02-21T00:40:49.872Z,100738.80
2018-02-21T00:43:20.781Z,100739.20
2018-02-21T00:45:51.690Z,100745.83
2018-02-21T00:48:22.238Z,100750.26
2018-02-21T00:50:52.972Z,100746.88
2018-02-21T00:53:23.916Z,100749.66
2018-02-21T00:55:54.875Z,100756.15
2018-02-21T00:58:25.719Z,100762.78
2018-02-21T01:00:56.667Z,100768.94
2018-02-21T01:03:34.041Z,100765.95
2018-02-21T01:06:03.360Z,100765.16
2018-02-21T01:08:32.537Z,100765.17
2018-02-21T01:11:01.621Z,100765.77
2018-02-21T01:13:32.024Z,100771.06
2018-02-21T01:16:02.860Z,100773.83
2018-02-21T01:18:33.780Z,100768.68
2018-02-21T01:21:04.651Z,100775.26
2018-02-21T01:23:35.575Z,100778.80
2018-02-21T01:26:06.925Z,100782.36
2018-02-21T01:28:37.835Z,100776.47
2018-02-21T01:31:08.668Z,100779.97
2018-02-21T01:33:39.620Z,100775.64
2018-02-21T01:36:10.912Z,100776.59
2018-02-21T01:38:41.799Z,100780.53
2018-02-21T01:41:12.929Z,100780.18
2018-02-21T01:43:43.851Z,100776.33
2018-02-21T01:46:14.355Z,100778.14
2018-02-21T01:48:44.967Z,100776.06
2018-02-21T01:51:15.847Z,100779.97
2018-02-21T01:53:46.803Z,100784.38
2018-02-21T01:56:17.276Z,100789.66
2018-02-21T01:58:47.959Z,100787.09
2018-02-21T02:01:18.840Z,100781.59
2018-02-21T02:03:49.759Z,100778.22
2018-02-21T02:06:20.616Z,100776.13
2018-02-21T02:08:51.999Z,100775.35
2018-02-21T02:11:22.917Z,100769.33
2018-02-21T02:13:53.459Z,100773.70
2018-02-21T02:16:23.996Z,100780.71
2018-02-21T02:18:54.871Z,100776.94
2018-02-21T02:21:25.728Z,100787.37
2018-02-21T02:23:56.642Z,100790.39
2018-02-21T02:26:27.932Z,100787.05
2018-02-21T02:28:58.832Z,100779.78
2018-02-21T02:31:29.654Z,100784.58
2018-02-21T02:34:00.717Z,100791.94
2018-02-21T02:36:31.303Z,100795.09
2018-02-21T02:39:13.950Z,100796.03
2018-02-21T02:41:43.306Z,100796.16
2018-02-21T02:44:12.375Z,100800.48
2018-02-21T02:46:41.514Z,100800.13
2018-02-21T02:49:10.592Z,100803.64
2018-02-21T02:51:39.671Z,100809.38
2018-02-21T02:54:08.789Z,100806.39
2018-02-21T02:56:39.289Z,100805.17
2018-02-21T02:59:09.955Z,100811.34
2018-02-21T03:01:40.808Z,100816.19
2018-02-21T03:04:11.727Z,100815.88
2018-02-21T03:06:49.226Z,100820.24
2018-02-21T03:09:18.421Z,100822.05
2018-02-21T03:11:47.480Z,100822.55
2018-02-21T03:14:16.581Z,100828.66
2018-02-21T03:16:47.124Z,100831.72
2018-02-21T03:19:17.866Z,100831.76
2018-02-21T03:21:48.771Z,100836.16
2018-02-21T03:24:19.604Z,100833.17
2018-02-21T03:26:50.216Z,100834.12
2018-02-21T03:29:20.812Z,100834.59
2018-02-21T03:31:51.728Z,100840.68
2018-02-21T03:34:22.612Z,100845.44
2018-02-21T03:36:54.395Z,100851.14
2018-02-21T03:39:23.912Z,100850.31
2018-02-21T03:41:54.648Z,100856.84
2018-02-21T03:44:25.252Z,100855.98
2018-02-21T03:46:56.187Z,100855.70
2018-02-21T03:49:27.466Z,100859.63
2018-02-21T03:51:58.290Z,100859.19
2018-02-21T03:54:29.149Z,100859.30
2018-02-21T03:57:00.438Z,100860.60
2018-02-21T03:59:31.109Z,100869.22
2018-02-21T04:02:02.513Z,100863.63
2018-02-21T04:04:33.107Z,100869.40
2018-02-21T04:07:04.534Z,100878.48
2018-02-21T04:09:35.092Z,100869.41
2018-02-21T04:12:06.588Z,100872.97
2018-02-21T04:14:37.155Z,100879.89
2018-02-21T04:17:08.241Z,100880.79
2018-02-21T04:19:39.464Z,100876.97
2018-02-21T04:22:10.207Z,100875.67
2018-02-21T04:24:40.483Z,100868.80
2018-02-21T04:27:11.298Z,100871.39
2018-02-21T04:29:42.115Z,100871.82
2018-02-21T04:32:13.544Z,100873.66
2018-02-21T04:34:44.158Z,100871.03
2018-02-21T04:37:15.434Z,100871.93
2018-02-21T04:39:46.244Z,100870.27
2018-02-21T04:42:17.207Z,100869.01
2018-02-21T04:44:48.486Z,100869.91
2018-02-21T04:47:19.184Z,100866.92
2018-02-21T04:49:49.512Z,100870.42
2018-02-21T04:52:20.235Z,100873.45
2018-02-21T04:54:56.731Z,100875.61
2018-02-21T04:57:31.299Z,100875.22
2018-02-21T05:00:01.200Z,100869.23
2018-02-21T05:02:30.185Z,100881.37
2018-02-21T05:04:59.401Z,100888.30
2018-02-21T05:07:28.485Z,100887.46
2018-02-21T05:09:58.261Z,100886.59
2018-02-21T05:12:28.920Z,100894.45
2018-02-21T05:14:59.808Z,100889.80
2018-02-21T05:17:30.712Z,100896.79
2018-02-21T05:20:01.216Z,100899.38
2018-02-21T05:22:31.970Z,100901.58
2018-02-21T05:25:02.828Z,100902.91
2018-02-21T05:27:33.404Z,100902.08
2018-02-21T05:30:04.016Z,100902.59
2018-02-21T05:32:34.972Z,100904.81
2018-02-21T05:35:05.764Z,100904.02
2018-02-21T05:37:36.707Z,100902.80
2018-02-21T05:40:07.295Z,100911.01
2018-02-21T05:42:38.002Z,100908.48
2018-02-21T05:45:08.893Z,100910.25
2018-02-21T05:47:39.925Z,100912.48
2018-02-21T05:50:10.820Z,100912.95
2018-02-21T05:52:41.385Z,100907.83
2018-02-21T05:55:12.024Z,100907.43
2018-02-21T05:57:42.839Z,100908.30
2018-02-21T06:00:13.699Z,100907.06
2018-02-21T06:02:45.011Z,100904.97
2018-02-21T06:05:15.875Z,100905.44
2018-02-21T06:07:46.429Z,100895.97
2018-02-21T06:10:16.927Z,100902.41
2018-02-21T06:12:48.483Z,100905.88
2018-02-21T06:15:18.995Z,100904.61
2018-02-21T06:17:49.938Z,100912.75
2018-02-21T06:20:20.801Z,100910.66
2018-02-21T06:22:51.719Z,100917.47
2018-02-21T06:25:24.663Z,100915.31
2018-02-21T06:27:53.888Z,100907.03
2018-02-21T06:30:24.388Z,100911.75
2018-02-21T06:32:55.046Z,100914.77
2018-02-21T06:35:25.936Z,100911.32
2018-02-21T06:37:56.934Z,100910.75
2018-02-21T06:40:27.772Z,100915.87
2018-02-21T06:42:58.640Z,100915.36
2018-02-21T06:45:29.961Z,100913.93
2018-02-21T06:48:01.088Z,100919.05
2018-02-21T06:50:31.544Z,100912.86
2018-02-21T06:53:02.048Z,100921.80
2018-02-21T06:55:32.905Z,100922.52
2018-02-21T06:58:03.881Z,100924.55
2018-02-21T07:00:34.715Z,100916.62
2018-02-21T07:03:05.678Z,100921.73
2018-02-21T07:05:36.595Z,100920.69
2018-02-21T07:08:08.075Z,100926.20
2018-02-21T07:10:38.837Z,100920.80
2018-02-21T07:13:09.761Z,100930.86
2018-02-21T07:15:40.683Z,100929.77
2018-02-21T07:18:11.292Z,100929.48
2018-02-21T07:20:41.942Z,100932.25
2018-02-21T07:23:13.089Z,100934.30
2018-02-21T07:25:43.475Z,100931.88
2018-02-21T07:28:14.000Z,100934.69
2018-02-21T07:30:44.874Z,100928.05
2018-02-21T07:33:15.249Z,100928.69
2018-02-21T07:35:45.279Z,100937.36
2018-02-21T07:38:16.219Z,100940.02
2018-02-21T07:40:47.568Z,100948.01
2018-02-21T07:43:18.245Z,100948.95
2018-02-21T07:45:49.171Z,100947.78
2018-02-21T07:48:20.590Z,100949.08
2018-02-21T07:50:51.147Z,100951.70
2018-02-21T07:53:22.573Z,100944.02
2018-02-21T07:55:53.226Z,100949.09
2018-02-21T07:58:24.617Z,100946.25
2018-02-21T08:00:55.979Z,100937.72
2018-02-21T08:03:26.958Z,100943.06
2018-02-21T08:05:57.830Z,100951.74
2018-02-21T08:08:28.735Z,100954.73
2018-02-21T08:10:59.208Z,100955.22
2018-02-21T08:13:29.989Z,100957.91
2018-02-21T08:16:00.883Z,100957.39
2018-02-21T08:18:31.792Z,100953.39
2018-02-21T08:21:02.622Z,100952.72
2018-02-21T08:23:33.985Z,100955.61
2018-02-21T08:26:04.849Z,100963.97
2018-02-21T08:28:35.784Z,100966.80
2018-02-21T08:31:06.642Z,100960.74
2018-02-21T08:33:37.927Z,100968.58
2018-02-21T08:36:08.791Z,100962.59
2018-02-21T08:38:39.694Z,100972.07
2018-02-21T08:41:10.608Z,100972.03
2018-02-21T08:43:41.885Z,100971.84
2018-02-21T08:46:12.195Z,100972.75
2018-02-21T08:48:42.665Z,100984.05
2018-02-21T08:51:13.272Z,100989.05
2018-02-21T08:53:44.845Z,100985.52
2018-02-21T08:56:15.649Z,100982.58
2018-02-21T08:58:46.314Z,100984.96
2018-02-21T09:01:16.992Z,100983.05
2018-02-21T09:03:48.358Z,100988.15
2018-02-21T09:06:18.917Z,100986.92
2018-02-21T09:08:49.504Z,100992.44
2018-02-21T09:11:19.867Z,100991.09
2018-02-21T09:13:50.763Z,100990.11
2018-02-21T09:16:21.592Z,100997.33
2018-02-21T09:18:52.943Z,100994.98
2018-02-21T09:21:23.753Z,100991.17
2018-02-21T09:23:54.801Z,101001.43
2018-02-21T09:26:25.599Z,100983.09
2018-02-21T09:28:56.559Z,100995.47
2018-02-21T09:31:27.986Z,100995.13
2018-02-21T09:33:58.872Z,100986.25
2018-02-21T09:36:29.703Z,100988.27
2018-02-21T09:39:00.631Z,100986.21
2018-02-21T09:41:31.524Z,100977.70
2018-02-21T09:44:02.959Z,100982.55
2018-02-21T09:46:33.802Z,100985.27
2018-02-21T09:49:04.709Z,100993.50
2018-02-21T09:51:35.570Z,100992.52
2018-02-21T09:54:06.891Z,100993.08
2018-02-21T09:56:37.727Z,100996.87
2018-02-21T09:59:08.637Z,100985.98
2018-02-21T10:01:38.924Z,100994.66
2018-02-21T10:04:09.828Z,100988.80
2018-02-21T10:06:40.668Z,100990.19
2018-02-21T10:09:12.115Z,100992.57
2018-02-21T10:11:42.859Z,100981.18
2018-02-21T10:14:13.750Z,100983.25
2018-02-21T10:16:44.561Z,100983.96
2018-02-21T10:19:15.936Z,100982.80
2018-02-21T10:21:46.772Z,100980.88
2018-02-21T10:24:17.411Z,100981.05
2018-02-21T10:26:48.914Z,100976.06
2018-02-21T10:29:19.784Z,100975.83
2018-02-21T10:31:50.650Z,100972.23
2018-02-21T10:34:21.031Z,100977.19
2018-02-21T10:36:51.836Z,100976.66
2018-02-21T10:39:22.771Z,100979.93
2018-02-21T10:41:53.628Z,100983.16
2018-02-21T10:44:24.944Z,100977.53
2018-02-21T10:46:55.768Z,100980.52
2018-02-21T10:49:26.648Z,100983.47
2018-02-21T10:51:57.516Z,100975.80
2018-02-21T10:54:28.976Z,100970.61
2018-02-21T10:56:59.844Z,100981.81
2018-02-21T10:59:30.778Z,100974.59
2018-02-21T11:02:01.644Z,100977.95
2018-02-21T11:04:34.240Z,100979.30
2018-02-21T11:07:03.468Z,100982.78
2018-02-21T11:09:33.942Z,100981.98
2018-02-21T11:12:04.780Z,100981.06
2018-02-21T11:14:35.899Z,100982.86
2018-02-21T11:17:06.807Z,100979.67
2018-02-21T11:19:37.756Z,100977.42
2018-02-21T11:22:10.154Z,100978.62
2018-02-21T11:24:41.312Z,100977.98
2018-02-21T11:27:11.595Z,100974.86
2018-02-21T11:29:41.898Z,100980.00
2018-02-21T11:32:12.824Z,100985.18
2018-02-21T11:34:43.686Z,100973.52
2018-02-21T11:37:14.326Z,100978.08
2018-02-21T11:39:44.894Z,100978.88
2018-02-21T11:42:16.875Z,100983.49
2018-02-21T11:44:47.597Z,100975.53
2018-02-21T11:47:17.964Z,100978.05
2018-02-21T11:49:50.434Z,100979.00
2018-02-21T11:52:19.707Z,100972.92
2018-02-21T11:54:50.203Z,100976.91
2018-02-21T11:57:20.927Z,100974.18
2018-02-21T11:59:51.776Z,100973.19
2018-02-21T12:02:22.423Z,100974.22
2018-02-21T12:04:53.917Z,100974.64
2018-02-21T12:07:24.710Z,100958.78
2018-02-21T12:09:55.575Z,100952.91
2018-02-21T12:12:26.917Z,100955.44
2018-02-21T12:14:57.777Z,100952.37
2018-02-21T12:17:28.712Z,100958.09
2018-02-21T12:19:59.572Z,100961.58
2018-02-21T12:22:30.856Z,100949.83
2018-02-21T12:25:01.327Z,100953.47
2018-02-21T12:27:32.026Z,100951.33
2018-02-21T12:30:02.735Z,100938.14
2018-02-21T12:35:36.316Z,100942.61
2018-02-21T12:38:05.176Z,100944.97
2018-02-21T12:40:39.277Z,100938.63
2018-02-21T12:43:08.352Z,100944.08
2018-02-21T12:45:37.140Z,100931.97
2018-02-21T12:48:05.995Z,100937.66
2018-02-21T12:50:35.066Z,100938.19
2018-02-21T12:53:03.839Z,100939.55
2018-02-21T12:55:32.695Z,100934.03
2018-02-21T12:58:01.809Z,100932.78
2018-02-21T13:00:31.823Z,100938.29
2018-02-21T13:03:00.618Z,100936.47
2018-02-21T13:05:30.063Z,100933.57
2018-02-21T13:07:59.263Z,100937.05
2018-02-21T13:10:28.354Z,100931.48
2018-02-21T13:12:57.491Z,100938.72
2018-02-21T13:15:26.580Z,100934.07
2018-02-21T13:17:55.685Z,100929.92
2018-02-21T13:20:24.872Z,100937.05
2018-02-21T13:22:53.945Z,100938.09
2018-02-21T13:25:24.435Z,100932.06
2018-02-21T13:27:54.956Z,100929.78
2018-02-21T13:30:25.864Z,100929.36
2018-02-21T13:32:56.680Z,100926.48
2018-02-21T13:35:27.583Z,100923.23
2018-02-21T13:37:58.160Z,100931.81
2018-02-21T13:40:28.991Z,100926.16
2018-02-21T13:42:59.860Z,100928.91
2018-02-21T13:45:30.821Z,100926.31
2018-02-21T13:48:01.673Z,100927.48
2018-02-21T13:50:32.679Z,100920.81
2018-02-21T13:53:05.227Z,100912.40
2018-02-21T13:55:35.286Z,100921.45
2018-02-21T13:58:05.864Z,100922.05
2018-02-21T14:00:36.728Z,100923.95
2018-02-21T14:03:07.594Z,100923.72
2018-02-21T14:05:38.884Z,100928.87
2018-02-21T14:08:09.744Z,100920.41
2018-02-21T14:10:40.773Z,100930.20
2018-02-21T14:13:11.636Z,100928.91
2018-02-21T14:15:42.979Z,100925.97
2018-02-21T14:18:13.805Z,100924.63
2018-02-21T14:20:44.708Z,100911.43
2018-02-21T14:23:15.547Z,100916.70
2018-02-21T14:25:46.017Z,100909.97
2018-02-21T14:28:16.849Z,100912.59
2018-02-21T14:30:47.775Z,100914.20
2018-02-21T14:33:18.572Z,100920.50
2018-02-21T14:35:49.861Z,100912.80
2018-02-21T14:38:18.929Z,100919.53
2018-02-21T14:40:50.436Z,100909.97
2018-02-21T14:43:21.146Z,100914.32
2018-02-21T14:45:52.585Z,100919.83
2018-02-21T14:48:23.166Z,100914.14
2018-02-21T14:50:53.940Z,100917.70
2018-02-21T14:53:25.347Z,100924.04
2018-02-21T14:55:56.160Z,100927.87
2018-02-21T14:58:27.390Z,100925.13
2018-02-21T15:00:58.203Z,100930.83
2018-02-21T15:03:29.486Z,100929.34
2018-02-21T15:06:00.135Z,100927.82
2018-02-21T15:08:31.468Z,100935.02
2018-02-21T15:11:02.178Z,100935.72
2018-02-21T15:13:33.080Z,100937.30
2018-02-21T15:16:04.448Z,100938.08
2018-02-21T15:18:35.152Z,100938.69
2018-02-21T15:21:06.533Z,100938.43
2018-02-21T15:23:38.780Z,100943.80
2018-02-21T15:26:09.384Z,100957.66
2018-02-21T15:28:39.982Z,100953.03
2018-02-21T15:31:10.894Z,100957.34
2018-02-21T15:33:41.342Z,100959.52
2018-02-21T15:36:11.932Z,100961.56
2018-02-21T15:38:42.470Z,100958.83
2018-02-21T15:41:13.019Z,100964.44
2018-02-21T15:43:43.850Z,100965.58
2018-02-21T15:46:14.771Z,100964.63
2018-02-21T15:48:45.520Z,100969.43
2018-02-21T15:51:16.924Z,100958.59
2018-02-21T15:53:47.760Z,100968.48
2018-02-21T15:56:18.645Z,100968.67
2018-02-21T15:58:49.886Z,100971.14
2018-02-21T16:01:20.877Z,100965.91
2018-02-21T16:03:51.686Z,100974.31
2018-02-21T16:06:22.635Z,100971.76
2018-02-21T16:08:53.124Z,100980.59
2018-02-21T16:11:23.913Z,100976.85
2018-02-21T16:13:54.721Z,100980.83
2018-02-21T16:16:25.611Z,100981.85
2018-02-21T16:18:56.889Z,100987.34
2018-02-21T16:21:27.769Z,100987.35
2018-02-21T16:23:58.583Z,100995.78
2018-02-21T16:26:29.570Z,101004.94
2018-02-21T16:29:00.888Z,101003.02
2018-02-21T16:31:31.776Z,100999.14
2018-02-21T16:34:02.604Z,101005.73
2018-02-21T16:36:34.058Z,101003.98
2018-02-21T16:39:04.128Z,101012.42
2018-02-21T16:41:34.607Z,101012.80
2018-02-21T16:44:05.605Z,101017.56
2018-02-21T16:46:36.916Z,101024.41
2018-02-21T16:49:07.755Z,101025.16
2018-02-21T16:51:44.076Z,101021.98
2018-02-21T16:54:17.745Z,101022.14
2018-02-21T16:56:47.111Z,101024.78
2018-02-21T16:59:16.183Z,101032.63
2018-02-21T17:01:45.287Z,101034.41
2018-02-21T17:04:14.560Z,101032.32
2018-02-21T17:06:51.448Z,101041.88
2018-02-21T17:09:27.216Z,101037.89
2018-02-21T17:11:56.344Z,101045.73
2018-02-21T17:14:25.487Z,101044.41
2018-02-21T17:16:54.569Z,101050.48
2018-02-21T17:19:23.955Z,101055.09
2018-02-21T17:21:53.280Z,101054.02
2018-02-21T17:24:22.559Z,101054.36
2018-02-21T17:26:52.916Z,101060.70
2018-02-21T17:29:24.617Z,101060.97
2018-02-21T17:31:55.003Z,101056.08
2018-02-21T17:34:26.508Z,101058.93
2018-02-21T17:36:56.902Z,101061.55
2018-02-21T17:39:27.764Z,101068.34
2018-02-21T17:41:58.577Z,101074.83
2018-02-21T17:44:29.986Z,101083.00
2018-02-21T17:47:00.853Z,101079.90
2018-02-21T17:49:31.732Z,101084.97
2018-02-21T17:52:02.689Z,101092.01
2018-02-21T17:54:33.528Z,101092.48
2018-02-21T17:57:05.021Z,101098.05
2018-02-21T17:59:35.873Z,101099.84
2018-02-21T18:02:06.799Z,101102.69
2018-02-21T18:04:37.663Z,101098.97
2018-02-21T18:07:08.652Z,101106.55
2018-02-21T18:09:39.927Z,101111.64
2018-02-21T18:12:10.828Z,101102.38
2018-02-21T18:14:41.687Z,101106.41
2018-02-21T18:17:12.651Z,101110.63
2018-02-21T18:19:43.890Z,101110.52
2018-02-21T18:22:14.768Z,101108.70
2018-02-21T18:24:45.571Z,101110.05
2018-02-21T18:27:17.387Z,101122.30
2018-02-21T18:29:47.574Z,101116.35
2018-02-21T18:32:18.111Z,101118.69
2018-02-21T18:34:48.983Z,101123.30
2018-02-21T18:37:19.932Z,101121.76
2018-02-21T18:39:50.982Z,101122.34
2018-02-21T18:42:21.920Z,101125.66
2018-02-21T18:44:52.736Z,101124.39
2018-02-21T18:47:23.743Z,101132.88
2018-02-21T18:49:54.699Z,101127.36
2018-02-21T18:52:25.671Z,101124.75
2018-02-21T18:54:56.687Z,101133.45
2018-02-21T18:57:27.839Z,101135.78
2018-02-21T18:59:58.693Z,101136.52
2018-02-21T19:02:29.627Z,101135.03
2018-02-21T19:05:00.580Z,101140.93
2018-02-21T19:07:31.986Z,101138.98
2018-02-21T19:10:02.862Z,101134.06
2018-02-21T19:12:33.762Z,101137.16
2018-02-21T19:15:04.644Z,101141.74
2018-02-21T19:17:35.582Z,101143.69
2018-02-21T19:20:06.902Z,101143.87
2018-02-21T19:22:37.784Z,101141.55
2018-02-21T19:25:08.591Z,101137.34
2018-02-21T19:27:39.987Z,101136.17
2018-02-21T19:30:10.797Z,101141.68
2018-02-21T19:32:41.347Z,101144.88
2018-02-21T19:35:11.893Z,101143.31
2018-02-21T19:37:43.695Z,101140.36
2018-02-21T19:40:14.295Z,101139.55
2018-02-21T19:42:44.954Z,101142.42
2018-02-21T19:45:15.796Z,101140.44
2018-02-21T19:47:46.732Z,101139.61
2018-02-21T19:50:17.208Z,101142.36
2018-02-21T19:52:47.995Z,101144.25
2018-02-21T19:55:18.815Z,101142.64
2018-02-21T19:57:49.676Z,101146.22
2018-02-21T20:00:20.559Z,101142.44
2018-02-21T20:02:51.053Z,101145.61
2018-02-21T20:05:21.908Z,101145.27
2018-02-21T20:07:52.832Z,101145.79
2018-02-21T20:10:23.679Z,101150.66
2018-02-21T20:12:54.316Z,101152.06
2018-02-21T20:15:25.473Z,101149.98
2018-02-21T20:17:56.048Z,101147.11
2018-02-21T20:20:26.856Z,101149.85
2018-02-21T20:22:57.759Z,101149.13
2018-02-21T20:25:28.628Z,101151.42
2018-02-21T20:27:59.981Z,101150.25
2018-02-21T20:30:30.827Z,101153.43
2018-02-21T20:33:01.740Z,101152.27
2018-02-21T20:35:32.263Z,101151.52
2018-02-21T20:38:03.393Z,101138.53
2018-02-21T20:40:33.931Z,101162.65
2018-02-21T20:43:04.928Z,101164.09
2018-02-21T20:45:35.805Z,101165.13
2018-02-21T20:48:06.692Z,101168.25
2018-02-21T20:50:37.612Z,101164.03
2018-02-21T20:53:08.899Z,101168.50
2018-02-21T20:55:39.776Z,101163.81
2018-02-21T20:58:10.952Z,101164.77
2018-02-21T21:00:41.883Z,101168.38
2018-02-21T21:03:12.387Z,101167.97
2018-02-21T21:05:43.125Z,101172.80
2018-02-21T21:08:13.882Z,101161.28
2018-02-21T21:10:44.896Z,101163.50
2018-02-21T21:13:15.825Z,101158.41
2018-02-21T21:15:46.533Z,101158.53
2018-02-21T21:18:16.939Z,101156.49
2018-02-21T21:20:47.900Z,101157.02
2018-02-21T21:23:18.992Z,101158.91
2018-02-21T21:25:49.914Z,101155.64
2018-02-21T21:28:20.774Z,101155.81
2018-02-21T21:30:51.679Z,101152.89
2018-02-21T21:33:22.548Z,101156.02
2018-02-21T21:35:53.910Z,101166.52
2018-02-21T21:38:24.751Z,101157.57
2018-02-21T21:40:55.647Z,101158.09
2018-02-21T21:43:26.903Z,101162.07
2018-02-21T21:45:58.175Z,101158.76
2018-02-21T21:48:28.511Z,101160.62
2018-02-21T21:50:58.998Z,101147.72
2018-02-21T21:53:29.467Z,101155.22
2018-02-21T21:56:00.060Z,101153.68
2018-02-21T21:58:30.807Z,101157.71
2018-02-21T22:01:01.687Z,101148.28
2018-02-21T22:03:32.889Z,101148.44
2018-02-21T22:06:03.760Z,101147.58
2018-02-21T22:08:34.575Z,101145.96
2018-02-21T22:11:05.873Z,101151.99
2018-02-21T22:13:36.671Z,101146.63
2018-02-21T22:16:07.969Z,101148.87
2018-02-21T22:18:38.803Z,101148.24
2018-02-21T22:21:09.620Z,101150.92
2018-02-21T22:23:40.863Z,101149.78
2018-02-21T22:26:11.828Z,101151.67
2018-02-21T22:28:42.639Z,101151.79
2018-02-21T22:31:13.931Z,101154.88
2018-02-21T22:33:44.769Z,101162.33
2018-02-21T22:36:15.648Z,101163.34
2018-02-21T22:38:45.958Z,101163.38
2018-02-21T22:41:16.868Z,101168.70
2018-02-21T22:43:47.737Z,101167.95
2018-02-21T22:46:18.630Z,101172.77
2018-02-21T22:48:49.822Z,101169.33
2018-02-21T22:51:20.708Z,101176.34
2018-02-21T22:53:51.731Z,101168.18
2018-02-21T22:56:22.581Z,101173.50
2018-02-21T22:58:53.904Z,101172.71
2018-02-21T23:01:24.799Z,101168.02
2018-02-21T23:03:56.010Z,101170.73
2018-02-21T23:06:26.883Z,101172.14
2018-02-21T23:08:57.703Z,101173.05
2018-02-21T23:11:28.260Z,101174.03
2018-02-21T23:13:58.893Z,101170.63
2018-02-21T23:16:29.848Z,101169.84
2018-02-21T23:19:00.665Z,101179.42
2018-02-21T23:21:32.296Z,101179.02
2018-02-21T23:24:03.135Z,101176.53
2018-02-21T23:26:33.938Z,101168.33
2018-02-21T23:29:04.742Z,101170.14
2018-02-21T23:31:35.641Z,101172.42
2018-02-21T23:34:06.853Z,101173.79
2018-02-21T23:36:37.776Z,101168.59
2018-02-21T23:39:08.610Z,101171.70
2018-02-21T23:41:38.952Z,101170.51
2018-02-21T23:44:09.783Z,101171.48
2018-02-21T23:46:40.674Z,101166.28
2018-02-21T23:49:11.864Z,101164.12
2018-02-21T23:51:42.817Z,101167.19
2018-02-21T23:54:13.639Z,101174.12
2018-02-21T23:56:44.971Z,101169.82
2018-02-21T23:59:15.895Z,101172.17
